Terminal Aerodrome Forecast
Issued by NWS Tallahassee, FL

Home | Current Version | Previous Version | Text Only | Print | Product List | Glossary On
Versions: 1 2 3 4 5 6 7 8 9 10 11 12 13 14 15 16 17 18
000
FTUS42 KTAE 012054 AAA
TAFTLH
TAF AMD
KTLH 012054Z 0121/0218 07005KT P6SM VCTS FEW035CB BKN060 BKN120
      TEMPO 0121/0122 5SM TSRA
     FM012200 07004KT P6SM SCT050 BKN100
     FM021400 14004KT P6SM VCSH BKN050=

USA.gov is the U.S. government's official web portal to all federal, state and local government web resources and services.